sensor_id;sensor_type;location;lat;lon;timestamp;pressure;altitude;pressure_sealevel;temperature;humidity
24762;BME280;12865;51.934;10.330;2022-08-04T00:00:27;99051.28;;;21.93;72.56
24762;BME280;12865;51.934;10.330;2022-08-04T00:03:16;99050.19;;;21.94;72.48
24762;BME280;12865;51.934;10.330;2022-08-04T00:08:56;99042.41;;;21.67;74.23
24762;BME280;12865;51.934;10.330;2022-08-04T00:11:29;99039.69;;;21.67;74.02
24762;BME280;12865;51.934;10.330;2022-08-04T00:13:56;99044.03;;;21.74;73.35
24762;BME280;12865;51.934;10.330;2022-08-04T00:16:22;99042.44;;;21.60;74.22
24762;BME280;12865;51.934;10.330;2022-08-04T00:18:56;99047.84;;;21.60;74.52
24762;BME280;12865;51.934;10.330;2022-08-04T00:21:26;99047.28;;;21.58;74.24
24762;BME280;12865;51.934;10.330;2022-08-04T00:23:53;99041.84;;;21.58;74.16
24762;BME280;12865;51.934;10.330;2022-08-04T00:26:19;99034.53;;;21.59;73.45
24762;BME280;12865;51.934;10.330;2022-08-04T00:28:46;99033.47;;;21.60;73.79
24762;BME280;12865;51.934;10.330;2022-08-04T00:31:13;99031.16;;;21.63;73.37
24762;BME280;12865;51.934;10.330;2022-08-04T00:33:43;99040.97;;;21.64;73.79
24762;BME280;12865;51.934;10.330;2022-08-04T00:36:10;99039.97;;;21.52;74.24
24762;BME280;12865;51.934;10.330;2022-08-04T00:38:36;99038.31;;;21.51;74.20
24762;BME280;12865;51.934;10.330;2022-08-04T00:41:30;99049.16;;;21.51;74.39
24762;BME280;12865;51.934;10.330;2022-08-04T00:46:55;99047.56;;;21.17;76.27
24762;BME280;12865;51.934;10.330;2022-08-04T00:52:31;99044.63;;;21.32;74.75
24762;BME280;12865;51.934;10.330;2022-08-04T01:01:09;99044.19;;;21.41;74.33
24762;BME280;12865;51.934;10.330;2022-08-04T01:03:49;99047.09;;;21.40;74.63
24762;BME280;12865;51.934;10.330;2022-08-04T01:06:23;99041.03;;;21.38;75.29
24762;BME280;12865;51.934;10.330;2022-08-04T01:15:02;99045.47;;;21.26;76.93
24762;BME280;12865;51.934;10.330;2022-08-04T01:20:07;99036.94;;;21.22;76.83
24762;BME280;12865;51.934;10.330;2022-08-04T01:30:29;99035.06;;;21.23;77.06
24762;BME280;12865;51.934;10.330;2022-08-04T01:38:16;99030.25;;;21.18;76.54
24762;BME280;12865;51.934;10.330;2022-08-04T01:40:44;99025.69;;;21.19;75.91
24762;BME280;12865;51.934;10.330;2022-08-04T01:43:12;99027.34;;;21.20;75.71
24762;BME280;12865;51.934;10.330;2022-08-04T01:45:39;99032.34;;;21.23;75.06
24762;BME280;12865;51.934;10.330;2022-08-04T01:48:06;99027.97;;;21.15;75.45
24762;BME280;12865;51.934;10.330;2022-08-04T01:50:35;99029.03;;;21.21;75.01
24762;BME280;12865;51.934;10.330;2022-08-04T01:53:02;99032.13;;;21.24;74.72
24762;BME280;12865;51.934;10.330;2022-08-04T01:55:28;99030.69;;;21.22;74.82
24762;BME280;12865;51.934;10.330;2022-08-04T01:57:59;99024.44;;;21.21;74.63
24762;BME280;12865;51.934;10.330;2022-08-04T02:00:27;99020.69;;;21.22;74.06
24762;BME280;12865;51.934;10.330;2022-08-04T02:02:54;99026.72;;;21.17;74.46
24762;BME280;12865;51.934;10.330;2022-08-04T02:05:23;99024.63;;;21.26;74.40
24762;BME280;12865;51.934;10.330;2022-08-04T02:08:03;99015.00;;;21.24;73.83
24762;BME280;12865;51.934;10.330;2022-08-04T02:10:42;99016.94;;;21.17;74.63
24762;BME280;12865;51.934;10.330;2022-08-04T02:13:18;99009.00;;;21.22;74.29
24762;BME280;12865;51.934;10.330;2022-08-04T02:15:58;99007.94;;;21.23;74.20
24762;BME280;12865;51.934;10.330;2022-08-04T02:21:19;99001.28;;;21.19;74.58
24762;BME280;12865;51.934;10.330;2022-08-04T02:23:50;99006.69;;;21.25;74.54
24762;BME280;12865;51.934;10.330;2022-08-04T02:26:19;98999.16;;;21.27;73.95
24762;BME280;12865;51.934;10.330;2022-08-04T02:31:26;99000.22;;;21.20;74.13
24762;BME280;12865;51.934;10.330;2022-08-04T02:34:03;98996.66;;;21.26;73.91
24762;BME280;12865;51.934;10.330;2022-08-04T02:36:34;98995.38;;;21.35;73.20
24762;BME280;12865;51.934;10.330;2022-08-04T02:39:02;98992.28;;;21.25;73.17
24762;BME280;12865;51.934;10.330;2022-08-04T02:41:30;98991.88;;;21.14;73.88
24762;BME280;12865;51.934;10.330;2022-08-04T02:44:01;98986.28;;;21.09;74.08
24762;BME280;12865;51.934;10.330;2022-08-04T02:46:28;98988.34;;;21.14;74.17
24762;BME280;12865;51.934;10.330;2022-08-04T02:48:54;98987.94;;;21.04;73.85
24762;BME280;12865;51.934;10.330;2022-08-04T02:51:29;98977.09;;;21.04;73.62
24762;BME280;12865;51.934;10.330;2022-08-04T02:53:56;98978.38;;;21.01;74.04
24762;BME280;12865;51.934;10.330;2022-08-04T02:56:23;98975.84;;;21.06;73.34
24762;BME280;12865;51.934;10.330;2022-08-04T02:58:52;98978.38;;;21.01;73.31
24762;BME280;12865;51.934;10.330;2022-08-04T03:01:20;98976.69;;;21.07;72.98
24762;BME280;12865;51.934;10.330;2022-08-04T03:04:05;98980.84;;;21.03;72.83
24762;BME280;12865;51.934;10.330;2022-08-04T03:06:57;98978.13;;;21.03;72.33
24762;BME280;12865;51.934;10.330;2022-08-04T03:17:58;98977.50;;;21.07;71.62
24762;BME280;12865;51.934;10.330;2022-08-04T03:36:33;98982.97;;;20.94;72.11
24762;BME280;12865;51.934;10.330;2022-08-04T03:39:19;98980.84;;;20.96;71.76
24762;BME280;12865;51.934;10.330;2022-08-04T03:48:11;98979.19;;;20.89;71.60
24762;BME280;12865;51.934;10.330;2022-08-04T03:50:54;98977.09;;;20.97;71.47
24762;BME280;12865;51.934;10.330;2022-08-04T04:10:19;98961.28;;;20.94;70.40
24762;BME280;12865;51.934;10.330;2022-08-04T04:16:23;98970.44;;;21.00;69.91
24762;BME280;12865;51.934;10.330;2022-08-04T04:21:57;98964.56;;;21.03;69.29
24762;BME280;12865;51.934;10.330;2022-08-04T04:26:59;98963.31;;;21.05;68.85
24762;BME280;12865;51.934;10.330;2022-08-04T04:30:00;98964.13;;;21.12;68.78
24762;BME280;12865;51.934;10.330;2022-08-04T04:52:27;98977.03;;;21.37;68.03
24762;BME280;12865;51.934;10.330;2022-08-04T04:55:02;98974.72;;;21.40;67.69
24762;BME280;12865;51.934;10.330;2022-08-04T04:57:30;98971.09;;;21.53;67.49
24762;BME280;12865;51.934;10.330;2022-08-04T05:00:05;98972.50;;;21.62;67.45
24762;BME280;12865;51.934;10.330;2022-08-04T05:05:27;98965.53;;;21.79;65.60
24762;BME280;12865;51.934;10.330;2022-08-04T05:13:10;98967.44;;;22.10;64.73
24762;BME280;12865;51.934;10.330;2022-08-04T05:15:42;98978.41;;;22.22;64.27
24762;BME280;12865;51.934;10.330;2022-08-04T05:18:13;98975.44;;;22.30;64.11
24762;BME280;12865;51.934;10.330;2022-08-04T05:20:43;98962.41;;;22.39;64.08
24762;BME280;12865;51.934;10.330;2022-08-04T05:23:14;98973.22;;;22.45;63.82
24762;BME280;12865;51.934;10.330;2022-08-04T05:28:14;98972.22;;;22.64;63.28
24762;BME280;12865;51.934;10.330;2022-08-04T05:30:44;98973.63;;;22.74;63.23
24762;BME280;12865;51.934;10.330;2022-08-04T05:33:31;98971.59;;;22.87;62.41
24762;BME280;12865;51.934;10.330;2022-08-04T05:35:59;98978.41;;;22.96;62.29
24762;BME280;12865;51.934;10.330;2022-08-04T05:38:30;98975.78;;;23.08;62.05
24762;BME280;12865;51.934;10.330;2022-08-04T05:40:58;98968.75;;;23.19;63.43
24762;BME280;12865;51.934;10.330;2022-08-04T05:43:25;98968.00;;;23.30;64.26
24762;BME280;12865;51.934;10.330;2022-08-04T05:45:51;98964.03;;;23.44;64.97
24762;BME280;12865;51.934;10.330;2022-08-04T05:48:17;98967.69;;;23.56;65.44
24762;BME280;12865;51.934;10.330;2022-08-04T05:50:45;98975.09;;;23.67;64.87
24762;BME280;12865;51.934;10.330;2022-08-04T05:53:14;98977.00;;;23.78;64.51
24762;BME280;12865;51.934;10.330;2022-08-04T05:55:40;98965.09;;;23.91;64.07
24762;BME280;12865;51.934;10.330;2022-08-04T05:58:06;98971.66;;;24.02;62.36
24762;BME280;12865;51.934;10.330;2022-08-04T06:00:33;98966.84;;;24.15;61.72
24762;BME280;12865;51.934;10.330;2022-08-04T06:03:00;98968.94;;;24.32;60.90
24762;BME280;12865;51.934;10.330;2022-08-04T06:05:27;98965.16;;;24.44;59.76
24762;BME280;12865;51.934;10.330;2022-08-04T06:07:53;98957.78;;;24.56;58.42
24762;BME280;12865;51.934;10.330;2022-08-04T06:10:19;98962.66;;;24.66;57.78
24762;BME280;12865;51.934;10.330;2022-08-04T06:13:17;98960.88;;;24.83;56.87
24762;BME280;12865;51.934;10.330;2022-08-04T06:15:46;98959.13;;;25.00;57.03
24762;BME280;12865;51.934;10.330;2022-08-04T06:18:12;98963.38;;;25.08;56.31
24762;BME280;12865;51.934;10.330;2022-08-04T06:20:39;98955.63;;;25.17;55.52
24762;BME280;12865;51.934;10.330;2022-08-04T06:23:12;98959.44;;;25.27;55.89
24762;BME280;12865;51.934;10.330;2022-08-04T06:25:45;98956.09;;;25.37;55.27
24762;BME280;12865;51.934;10.330;2022-08-04T06:28:12;98962.91;;;25.51;55.32
24762;BME280;12865;51.934;10.330;2022-08-04T06:30:39;98961.94;;;25.69;54.48
24762;BME280;12865;51.934;10.330;2022-08-04T06:33:07;98960.31;;;25.85;53.94
24762;BME280;12865;51.934;10.330;2022-08-04T06:35:52;98960.69;;;26.05;53.87
24762;BME280;12865;51.934;10.330;2022-08-04T06:38:23;98956.06;;;26.22;53.30
24762;BME280;12865;51.934;10.330;2022-08-04T06:40:50;98960.75;;;26.38;52.76
24762;BME280;12865;51.934;10.330;2022-08-04T06:43:16;98965.41;;;26.54;52.38
24762;BME280;12865;51.934;10.330;2022-08-04T06:45:43;98961.31;;;26.74;52.15
24762;BME280;12865;51.934;10.330;2022-08-04T06:48:11;98959.88;;;26.88;52.06
24762;BME280;12865;51.934;10.330;2022-08-04T06:50:37;98958.22;;;27.04;51.50
24762;BME280;12865;51.934;10.330;2022-08-04T06:53:04;98952.69;;;27.20;51.16
24762;BME280;12865;51.934;10.330;2022-08-04T06:55:30;98950.72;;;27.38;50.74
24762;BME280;12865;51.934;10.330;2022-08-04T06:57:58;98951.59;;;27.60;49.73
24762;BME280;12865;51.934;10.330;2022-08-04T07:00:26;98949.50;;;27.72;49.52
24762;BME280;12865;51.934;10.330;2022-08-04T07:02:52;98942.28;;;27.88;49.11
24762;BME280;12865;51.934;10.330;2022-08-04T07:05:19;98940.00;;;28.06;46.51
24762;BME280;12865;51.934;10.330;2022-08-04T07:07:45;98943.56;;;28.34;45.82
24762;BME280;12865;51.934;10.330;2022-08-04T07:10:11;98943.69;;;28.49;45.32
24762;BME280;12865;51.934;10.330;2022-08-04T07:12:39;98938.34;;;28.69;44.60
24762;BME280;12865;51.934;10.330;2022-08-04T07:15:06;98933.84;;;28.90;44.25
24762;BME280;12865;51.934;10.330;2022-08-04T07:17:34;98934.78;;;29.11;44.00
24762;BME280;12865;51.934;10.330;2022-08-04T07:20:00;98940.91;;;29.28;43.92
24762;BME280;12865;51.934;10.330;2022-08-04T07:22:26;98936.03;;;29.45;42.35
24762;BME280;12865;51.934;10.330;2022-08-04T07:24:56;98932.25;;;29.56;42.17
24762;BME280;12865;51.934;10.330;2022-08-04T07:27:23;98930.66;;;29.71;42.41
24762;BME280;12865;51.934;10.330;2022-08-04T07:29:49;98928.72;;;29.86;42.11
24762;BME280;12865;51.934;10.330;2022-08-04T07:32:15;98938.13;;;30.00;40.00
24762;BME280;12865;51.934;10.330;2022-08-04T07:34:43;98933.22;;;30.18;40.15
24762;BME280;12865;51.934;10.330;2022-08-04T07:37:08;98931.81;;;30.35;39.45
24762;BME280;12865;51.934;10.330;2022-08-04T07:39:34;98930.75;;;30.57;39.89
24762;BME280;12865;51.934;10.330;2022-08-04T07:42:01;98930.97;;;30.91;37.94
24762;BME280;12865;51.934;10.330;2022-08-04T07:44:29;98935.06;;;31.03;37.32
24762;BME280;12865;51.934;10.330;2022-08-04T07:46:54;98940.53;;;31.24;36.34
24762;BME280;12865;51.934;10.330;2022-08-04T07:49:20;98936.13;;;31.33;36.80
24762;BME280;12865;51.934;10.330;2022-08-04T07:51:46;98934.44;;;31.37;37.61
24762;BME280;12865;51.934;10.330;2022-08-04T07:54:12;98931.59;;;31.52;37.60
24762;BME280;12865;51.934;10.330;2022-08-04T07:56:40;98935.41;;;31.66;37.04
24762;BME280;12865;51.934;10.330;2022-08-04T07:59:06;98931.47;;;31.77;35.63
24762;BME280;12865;51.934;10.330;2022-08-04T08:01:33;98930.25;;;31.98;35.18
24762;BME280;12865;51.934;10.330;2022-08-04T08:03:59;98925.94;;;32.26;33.64
24762;BME280;12865;51.934;10.330;2022-08-04T08:06:25;98929.34;;;32.47;32.16
24762;BME280;12865;51.934;10.330;2022-08-04T08:08:53;98926.81;;;32.85;31.32
24762;BME280;12865;51.934;10.330;2022-08-04T08:11:19;98919.75;;;32.97;30.65
24762;BME280;12865;51.934;10.330;2022-08-04T08:13:45;98926.00;;;33.08;30.17
24762;BME280;12865;51.934;10.330;2022-08-04T08:16:11;98923.84;;;33.29;30.74
24762;BME280;12865;51.934;10.330;2022-08-04T08:18:37;98925.72;;;33.52;30.95
24762;BME280;12865;51.934;10.330;2022-08-04T08:21:03;98917.97;;;33.78;29.88
24762;BME280;12865;51.934;10.330;2022-08-04T08:23:29;98920.56;;;33.88;30.39
24762;BME280;12865;51.934;10.330;2022-08-04T08:25:57;98914.25;;;34.01;31.39
24762;BME280;12865;51.934;10.330;2022-08-04T08:28:23;98910.91;;;34.04;29.75
24762;BME280;12865;51.934;10.330;2022-08-04T08:30:49;98910.97;;;34.18;29.40
24762;BME280;12865;51.934;10.330;2022-08-04T08:33:15;98908.28;;;34.13;29.17
24762;BME280;12865;51.934;10.330;2022-08-04T08:38:17;98908.69;;;34.06;29.15
24762;BME280;12865;51.934;10.330;2022-08-04T08:40:51;98908.72;;;34.20;29.18
24762;BME280;12865;51.934;10.330;2022-08-04T08:43:28;98910.59;;;34.24;28.83
24762;BME280;12865;51.934;10.330;2022-08-04T08:46:31;98913.16;;;34.02;28.49
24762;BME280;12865;51.934;10.330;2022-08-04T08:49:26;98913.63;;;34.42;29.28
24762;BME280;12865;51.934;10.330;2022-08-04T08:52:06;98907.81;;;34.57;28.21
24762;BME280;12865;51.934;10.330;2022-08-04T09:00:17;98918.72;;;35.27;28.21
24762;BME280;12865;51.934;10.330;2022-08-04T09:03:06;98924.47;;;35.44;27.73
24762;BME280;12865;51.934;10.330;2022-08-04T09:08:28;98914.91;;;35.36;27.25
24762;BME280;12865;51.934;10.330;2022-08-04T09:11:05;98918.50;;;35.10;27.51
24762;BME280;12865;51.934;10.330;2022-08-04T09:13:39;98913.44;;;35.12;27.37
24762;BME280;12865;51.934;10.330;2022-08-04T09:19:03;98910.28;;;35.18;27.77
24762;BME280;12865;51.934;10.330;2022-08-04T09:21:38;98910.06;;;35.15;27.81
24762;BME280;12865;51.934;10.330;2022-08-04T09:24:17;98922.69;;;35.48;28.19
24762;BME280;12865;51.934;10.330;2022-08-04T09:30:05;98919.66;;;35.36;27.57
24762;BME280;12865;51.934;10.330;2022-08-04T09:40:13;98918.25;;;35.61;28.44
24762;BME280;12865;51.934;10.330;2022-08-04T09:45:37;98925.63;;;35.93;27.16
24762;BME280;12865;51.934;10.330;2022-08-04T09:48:30;98925.50;;;35.98;26.91
24762;BME280;12865;51.934;10.330;2022-08-04T09:50:58;98908.66;;;35.94;27.27
24762;BME280;12865;51.934;10.330;2022-08-04T09:53:45;98917.81;;;35.95;27.92
24762;BME280;12865;51.934;10.330;2022-08-04T10:01:35;98915.47;;;35.61;27.21
24762;BME280;12865;51.934;10.330;2022-08-04T10:04:06;98907.59;;;35.54;27.87
24762;BME280;12865;51.934;10.330;2022-08-04T10:12:27;98911.09;;;35.73;27.53
24762;BME280;12865;51.934;10.330;2022-08-04T10:15:15;98908.41;;;35.55;27.89
24762;BME280;12865;51.934;10.330;2022-08-04T10:17:58;98907.94;;;35.39;28.09
24762;BME280;12865;51.934;10.330;2022-08-04T10:28:19;98900.63;;;35.16;28.24
24762;BME280;12865;51.934;10.330;2022-08-04T10:30:58;98902.56;;;35.56;28.28
24762;BME280;12865;51.934;10.330;2022-08-04T10:33:24;98890.03;;;35.59;28.61
24762;BME280;12865;51.934;10.330;2022-08-04T10:36:03;98887.09;;;36.13;26.99
24762;BME280;12865;51.934;10.330;2022-08-04T10:38:41;98890.44;;;36.24;26.70
24762;BME280;12865;51.934;10.330;2022-08-04T10:43:51;98889.41;;;35.98;26.57
24762;BME280;12865;51.934;10.330;2022-08-04T10:46:26;98890.94;;;35.81;27.29
24762;BME280;12865;51.934;10.330;2022-08-04T10:52:12;98882.00;;;36.29;26.10
24762;BME280;12865;51.934;10.330;2022-08-04T10:55:06;98883.75;;;36.47;26.57
24762;BME280;12865;51.934;10.330;2022-08-04T10:57:47;98882.56;;;36.40;26.90
24762;BME280;12865;51.934;10.330;2022-08-04T11:00:20;98882.09;;;36.46;26.70
24762;BME280;12865;51.934;10.330;2022-08-04T11:03:14;98879.53;;;36.28;26.49
24762;BME280;12865;51.934;10.330;2022-08-04T11:08:16;98872.31;;;36.04;26.83
24762;BME280;12865;51.934;10.330;2022-08-04T11:13:51;98873.47;;;36.48;26.48
24762;BME280;12865;51.934;10.330;2022-08-04T11:16:22;98867.44;;;36.77;26.81
24762;BME280;12865;51.934;10.330;2022-08-04T11:21:56;98883.38;;;36.93;25.47
24762;BME280;12865;51.934;10.330;2022-08-04T11:30:52;98871.19;;;36.72;26.60
24762;BME280;12865;51.934;10.330;2022-08-04T11:39:14;98881.06;;;37.35;25.30
24762;BME280;12865;51.934;10.330;2022-08-04T11:41:57;98870.13;;;36.99;25.98
24762;BME280;12865;51.934;10.330;2022-08-04T11:44:40;98869.09;;;36.55;26.30
24762;BME280;12865;51.934;10.330;2022-08-04T11:47:14;98872.97;;;36.77;26.29
24762;BME280;12865;51.934;10.330;2022-08-04T11:49:45;98861.91;;;36.85;26.79
24762;BME280;12865;51.934;10.330;2022-08-04T11:52:13;98871.44;;;36.93;26.08
24762;BME280;12865;51.934;10.330;2022-08-04T11:54:42;98871.00;;;36.46;26.38
24762;BME280;12865;51.934;10.330;2022-08-04T11:57:08;98872.44;;;36.66;26.35
24762;BME280;12865;51.934;10.330;2022-08-04T11:59:36;98871.84;;;37.17;27.07
24762;BME280;12865;51.934;10.330;2022-08-04T12:02:18;98873.19;;;37.28;26.31
24762;BME280;12865;51.934;10.330;2022-08-04T12:04:59;98879.50;;;36.72;25.94
24762;BME280;12865;51.934;10.330;2022-08-04T12:07:43;98872.63;;;36.47;26.75
24762;BME280;12865;51.934;10.330;2022-08-04T12:19:02;98864.38;;;37.52;25.96
24762;BME280;12865;51.934;10.330;2022-08-04T12:24:05;98864.66;;;36.54;26.92
24762;BME280;12865;51.934;10.330;2022-08-04T12:26:37;98864.84;;;36.27;26.88
24762;BME280;12865;51.934;10.330;2022-08-04T12:29:08;98855.72;;;35.55;27.76
24762;BME280;12865;51.934;10.330;2022-08-04T12:31:51;98863.06;;;36.09;27.57
24762;BME280;12865;51.934;10.330;2022-08-04T12:37:25;98849.03;;;35.92;27.68
24762;BME280;12865;51.934;10.330;2022-08-04T12:39:53;98852.66;;;35.92;27.43
24762;BME280;12865;51.934;10.330;2022-08-04T12:42:26;98851.78;;;36.28;27.67
24762;BME280;12865;51.934;10.330;2022-08-04T12:44:54;98856.84;;;36.56;26.72
24762;BME280;12865;51.934;10.330;2022-08-04T12:47:26;98861.44;;;36.61;27.13
24762;BME280;12865;51.934;10.330;2022-08-04T12:49:56;98858.69;;;36.39;27.46
24762;BME280;12865;51.934;10.330;2022-08-04T12:52:23;98853.25;;;36.11;27.17
24762;BME280;12865;51.934;10.330;2022-08-04T12:54:53;98852.09;;;36.26;27.40
24762;BME280;12865;51.934;10.330;2022-08-04T12:57:20;98848.41;;;36.39;27.48
24762;BME280;12865;51.934;10.330;2022-08-04T12:59:48;98854.53;;;36.50;26.65
24762;BME280;12865;51.934;10.330;2022-08-04T13:02:26;98843.22;;;36.46;26.86
24762;BME280;12865;51.934;10.330;2022-08-04T13:04:57;98843.44;;;36.28;27.45
24762;BME280;12865;51.934;10.330;2022-08-04T13:07:25;98841.84;;;36.35;27.08
24762;BME280;12865;51.934;10.330;2022-08-04T13:09:52;98831.53;;;36.58;27.32
24762;BME280;12865;51.934;10.330;2022-08-04T13:12:20;98830.63;;;36.80;26.72
24762;BME280;12865;51.934;10.330;2022-08-04T13:14:48;98826.38;;;37.13;27.26
24762;BME280;12865;51.934;10.330;2022-08-04T13:17:14;98829.94;;;36.35;27.66
24762;BME280;12865;51.934;10.330;2022-08-04T13:19:46;98825.56;;;36.42;27.18
24762;BME280;12865;51.934;10.330;2022-08-04T13:22:12;98827.66;;;35.70;27.80
24762;BME280;12865;51.934;10.330;2022-08-04T13:24:41;98827.34;;;35.94;28.08
24762;BME280;12865;51.934;10.330;2022-08-04T13:27:09;98818.63;;;36.62;28.28
24762;BME280;12865;51.934;10.330;2022-08-04T13:29:43;98820.91;;;37.08;27.04
24762;BME280;12865;51.934;10.330;2022-08-04T13:32:10;98814.97;;;37.49;26.37
24762;BME280;12865;51.934;10.330;2022-08-04T13:34:41;98818.59;;;37.84;26.79
24762;BME280;12865;51.934;10.330;2022-08-04T13:37:07;98824.16;;;37.67;26.09
24762;BME280;12865;51.934;10.330;2022-08-04T13:39:34;98814.88;;;37.06;26.62
24762;BME280;12865;51.934;10.330;2022-08-04T13:42:04;98807.47;;;37.58;26.24
24762;BME280;12865;51.934;10.330;2022-08-04T13:44:35;98817.59;;;36.89;26.08
24762;BME280;12865;51.934;10.330;2022-08-04T13:47:09;98810.38;;;37.27;26.04
24762;BME280;12865;51.934;10.330;2022-08-04T13:49:36;98800.91;;;37.54;25.69
24762;BME280;12865;51.934;10.330;2022-08-04T13:52:05;98798.94;;;37.55;25.92
24762;BME280;12865;51.934;10.330;2022-08-04T13:54:34;98797.16;;;37.59;25.78
24762;BME280;12865;51.934;10.330;2022-08-04T13:57:05;98795.97;;;37.51;26.16
24762;BME280;12865;51.934;10.330;2022-08-04T13:59:35;98796.66;;;37.65;26.22
24762;BME280;12865;51.934;10.330;2022-08-04T14:02:07;98778.13;;;37.87;25.90
24762;BME280;12865;51.934;10.330;2022-08-04T14:04:38;98784.69;;;37.91;26.10
24762;BME280;12865;51.934;10.330;2022-08-04T14:07:10;98780.56;;;38.14;25.56
24762;BME280;12865;51.934;10.330;2022-08-04T14:09:38;98775.31;;;38.21;25.84
24762;BME280;12865;51.934;10.330;2022-08-04T14:12:09;98780.47;;;38.48;25.11
24762;BME280;12865;51.934;10.330;2022-08-04T14:14:36;98782.75;;;38.46;25.56
24762;BME280;12865;51.934;10.330;2022-08-04T14:17:13;98773.03;;;38.06;24.89
24762;BME280;12865;51.934;10.330;2022-08-04T14:25:13;98765.59;;;36.81;26.00
24762;BME280;12865;51.934;10.330;2022-08-04T14:27:46;98761.31;;;37.49;26.07
24762;BME280;12865;51.934;10.330;2022-08-04T14:33:04;98757.13;;;38.15;24.88
24762;BME280;12865;51.934;10.330;2022-08-04T14:35:32;98753.84;;;38.13;24.43
24762;BME280;12865;51.934;10.330;2022-08-04T14:38:03;98750.75;;;38.15;25.07
24762;BME280;12865;51.934;10.330;2022-08-04T14:40:31;98756.69;;;38.04;25.27
24762;BME280;12865;51.934;10.330;2022-08-04T14:42:57;98761.88;;;38.15;24.85
24762;BME280;12865;51.934;10.330;2022-08-04T14:45:37;98768.97;;;38.12;24.95
24762;BME280;12865;51.934;10.330;2022-08-04T14:48:11;98757.41;;;38.31;25.33
24762;BME280;12865;51.934;10.330;2022-08-04T14:50:46;98758.97;;;38.11;24.51
24762;BME280;12865;51.934;10.330;2022-08-04T14:53:12;98758.06;;;38.36;26.07
24762;BME280;12865;51.934;10.330;2022-08-04T14:55:41;98748.59;;;38.67;24.42
24762;BME280;12865;51.934;10.330;2022-08-04T14:58:16;98739.00;;;38.47;24.37
24762;BME280;12865;51.934;10.330;2022-08-04T15:00:42;98747.19;;;38.52;24.19
24762;BME280;12865;51.934;10.330;2022-08-04T15:03:08;98751.75;;;38.48;23.60
24762;BME280;12865;51.934;10.330;2022-08-04T15:05:39;98742.78;;;38.04;23.33
24762;BME280;12865;51.934;10.330;2022-08-04T15:08:05;98740.63;;;37.93;23.46
24762;BME280;12865;51.934;10.330;2022-08-04T15:10:30;98738.84;;;37.88;23.77
24762;BME280;12865;51.934;10.330;2022-08-04T15:12:56;98731.34;;;37.37;24.37
24762;BME280;12865;51.934;10.330;2022-08-04T15:15:22;98736.25;;;37.49;25.00
24762;BME280;12865;51.934;10.330;2022-08-04T15:17:49;98734.13;;;37.54;24.46
24762;BME280;12865;51.934;10.330;2022-08-04T15:20:14;98734.78;;;37.77;24.18
24762;BME280;12865;51.934;10.330;2022-08-04T15:22:41;98733.47;;;37.83;23.68
24762;BME280;12865;51.934;10.330;2022-08-04T15:25:07;98746.06;;;37.81;23.89
24762;BME280;12865;51.934;10.330;2022-08-04T15:27:35;98751.00;;;37.41;25.25
24762;BME280;12865;51.934;10.330;2022-08-04T15:30:04;98741.34;;;36.64;26.57
24762;BME280;12865;51.934;10.330;2022-08-04T15:32:33;98734.81;;;35.98;27.40
24762;BME280;12865;51.934;10.330;2022-08-04T15:35:11;98741.44;;;35.89;27.73
24762;BME280;12865;51.934;10.330;2022-08-04T15:40:13;98741.06;;;35.59;28.23
24762;BME280;12865;51.934;10.330;2022-08-04T15:45:31;98729.34;;;35.85;28.57
24762;BME280;12865;51.934;10.330;2022-08-04T15:58:50;98727.63;;;35.97;28.36
24762;BME280;12865;51.934;10.330;2022-08-04T16:01:16;98732.69;;;35.95;27.84
24762;BME280;12865;51.934;10.330;2022-08-04T16:03:44;98729.56;;;35.97;28.16
24762;BME280;12865;51.934;10.330;2022-08-04T16:16:46;98722.91;;;35.53;28.55
24762;BME280;12865;51.934;10.330;2022-08-04T16:21:49;98724.03;;;35.30;28.78
24762;BME280;12865;51.934;10.330;2022-08-04T16:24:35;98718.22;;;35.18;29.11
24762;BME280;12865;51.934;10.330;2022-08-04T16:27:03;98728.47;;;35.17;28.81
24762;BME280;12865;51.934;10.330;2022-08-04T16:29:32;98726.78;;;34.94;29.32
24762;BME280;12865;51.934;10.330;2022-08-04T16:35:17;98726.81;;;34.80;29.64
24762;BME280;12865;51.934;10.330;2022-08-04T16:37:18;98732.84;;;34.68;29.47
24762;BME280;12865;51.934;10.330;2022-08-04T16:39:45;98728.97;;;34.83;29.27
24762;BME280;12865;51.934;10.330;2022-08-04T16:45:11;98736.84;;;34.49;30.34
24762;BME280;12865;51.934;10.330;2022-08-04T16:50:16;98734.69;;;34.59;30.45
24762;BME280;12865;51.934;10.330;2022-08-04T16:52:43;98734.47;;;34.42;30.36
24762;BME280;12865;51.934;10.330;2022-08-04T16:55:10;98735.72;;;34.36;30.39
24762;BME280;12865;51.934;10.330;2022-08-04T16:57:36;98738.06;;;34.29;30.94
24762;BME280;12865;51.934;10.330;2022-08-04T17:00:03;98742.06;;;34.37;30.81
24762;BME280;12865;51.934;10.330;2022-08-04T17:02:29;98748.44;;;34.23;30.80
24762;BME280;12865;51.934;10.330;2022-08-04T17:04:54;98732.69;;;34.05;31.44
24762;BME280;12865;51.934;10.330;2022-08-04T17:07:20;98745.00;;;33.99;31.64
24762;BME280;12865;51.934;10.330;2022-08-04T17:09:49;98760.66;;;34.04;31.87
24762;BME280;12865;51.934;10.330;2022-08-04T17:12:14;98767.94;;;33.48;33.77
24762;BME280;12865;51.934;10.330;2022-08-04T17:14:40;98762.09;;;33.12;35.22
24762;BME280;12865;51.934;10.330;2022-08-04T17:17:05;98776.00;;;32.84;36.75
24762;BME280;12865;51.934;10.330;2022-08-04T17:19:31;98778.38;;;32.19;39.29
24762;BME280;12865;51.934;10.330;2022-08-04T17:22:02;98780.44;;;31.69;41.91
24762;BME280;12865;51.934;10.330;2022-08-04T17:24:29;98788.94;;;31.39;43.05
24762;BME280;12865;51.934;10.330;2022-08-04T17:26:54;98782.16;;;31.21;44.07
24762;BME280;12865;51.934;10.330;2022-08-04T17:29:22;98792.56;;;30.75;46.11
24762;BME280;12865;51.934;10.330;2022-08-04T17:31:51;98796.66;;;30.77;46.24